Latest Coastal Weather Observations for Bellambi

IDN60701

Issued at 1:11 pm EST Sunday 25 August 2019 (issued every 10 minutes, with the page automatically refreshed every 10 minutes)

About coastal observations | Map of coastal stations | Coastal observations for NSW | Marine services | Other Formats
Station Details ID: 068228 Name: BELLAMBI AWS Lat: -34.37 Lon: 150.93 Height: 10.0 m
Data from the previous 72 hours. | See also: Recent months at Bellambi
Date/Time
EST
Wind Sea
Height
m
Swell Vis
km
Cloud Weather Temp
°C
Press
hPa
Rain since
9am
mm
Dir  Spd
kts
Gust
kts
Height
m
Period
s
Dir
25/01:00pm SSE 16 20 - - - - - - - 15.4 - 0.0
25/12:30pm S 17 21 - - - - - - - 15.9 - 0.0
25/12:00pm SSE 17 20 - - - - - - - 16.6 - 0.0
25/11:30am S 20 27 - - - - - - - 16.6 - 0.0
25/11:00am S 21 26 - - - - - - - 16.5 - 0.0
25/10:30am S 14 17 - - - - - - - 17.6 - 0.0
25/10:00am SE 7 12 - - - - - - - 18.6 - 0.0
25/09:30am WNW 5 8 - - - - - - - 19.1 - 0.0
25/09:00am NW 5 9 - - - - - - - 18.8 - 0.0
25/08:30am WNW 4 6 - - - - - - - 17.6 - 0.0
25/08:00am W 8 11 - - - - - - - 15.9 - 0.0
25/07:30am W 4 5 - - - - - - - 14.0 - 0.0
25/07:00am NW 7 9 - - - - - - - 10.8 - 0.0
25/06:30am WNW 4 5 - - - - - - - 10.0 - 0.0
25/06:00am NW 6 7 - - - - - - - 9.4 - 0.0
25/05:30am NNW 5 6 - - - - - - - 10.6 - 0.0
25/05:00am NNW 3 5 - - - - - - - 10.6 - 0.0
25/04:30am W 1 5 - - - - - - - 11.1 - 0.0
25/04:00am NW 5 7 - - - - - - - 11.1 - 0.0
25/03:30am NNW 4 5 - - - - - - - 10.6 - 0.0
25/03:00am WSW 6 9 - - - - - - - 11.3 - 0.0
25/02:30am SW 6 11 - - - - - - - 10.9 - 0.0
25/02:00am NNW 5 7 - - - - - - - 12.7 - 0.0
25/01:30am NW 5 7 - - - - - - - 12.4 - 0.0
25/01:00am NW 6 7 - - - - - - - 11.6 - 0.0
25/12:30am NW 4 6 - - - - - - - 11.7 - 0.0
25/12:00am NW 6 7 - - - - - - - 12.7 - 0.0
 
Date/Time
EST
Wind Sea
Height
m
Swell Vis
km
Cloud Weather Temp
°C
Press
hPa
Rain since
9am
mm
Dir  Spd
kts
Gust
kts
Height
m
Period
s
Dir
24/11:30pm NNW 5 6 - - - - - - - 13.4 - 0.0
24/11:00pm NW 8 9 - - - - - - - 13.6 - 0.0
24/10:30pm NNW 7 9 - - - - - - - 14.8 - 0.0
24/10:00pm NW 8 10 - - - - - - - 15.7 - 0.0
24/09:30pm WNW 6 8 - - - - - - - 14.7 - 0.0
24/09:00pm NNW 5 6 - - - - - - - 15.1 - 0.0
24/08:30pm NNW 5 6 - - - - - - - 14.3 - 0.0
24/08:00pm N 2 4 - - - - - - - 15.1 - 0.0
24/07:30pm NW 4 5 - - - - - - - 15.6 - 0.0
24/07:00pm NW 7 8 - - - - - - - 16.4 - 0.0
24/06:30pm NW 5 6 - - - - - - - 16.1 - 0.0
24/06:00pm N 3 5 - - - - - - - 17.4 - 0.0
24/05:30pm WNW 5 6 - - - - - - - 21.1 - 0.0
24/05:00pm NW 6 9 - - - - - - - 22.6 - 0.0
24/04:30pm NW 6 10 - - - - - - - 23.5 - 0.0
24/04:00pm NNW 6 10 - - - - - - - 23.7 - 0.0
24/03:30pm NW 11 15 - - - - - - - 23.8 - 0.0
24/03:00pm NW 10 17 - - - - - - - 23.8 - 0.0
24/02:30pm NW 9 14 - - - - - - - 24.1 - 0.0
24/02:00pm WNW 11 18 - - - - - - - 23.9 - 0.0
24/01:30pm WNW 9 16 - - - - - - - 23.5 - 0.0
24/01:00pm NW 13 20 - - - - - - - 23.2 - 0.0
24/12:38pm NW 13 23 - - - - - - - 22.8 - 0.0
24/12:30pm WNW 6 10 - - - - - - - 22.9 - 0.0
24/12:00pm NW 11 20 - - - - - - - 22.0 - 0.0
24/11:30am W 8 17 - - - - - - - 21.4 - 0.0
24/11:00am WNW 12 21 - - - - - - - 20.4 - 0.0
24/10:30am WNW 7 12 - - - - - - - 20.3 - 0.0
24/10:00am SSE 6 13 - - - - - - - 18.7 - 0.0
24/09:30am ESE 9 16 - - - - - - - 18.1 - 0.0
24/09:00am E 7 15 - - - - - - - 17.1 - 0.0
24/08:30am ENE 5 9 - - - - - - - 16.5 - 0.0
24/08:00am SSE 3 7 - - - - - - - 15.9 - 0.0
24/07:30am S 8 10 - - - - - - - 14.8 - 0.0
24/07:00am S 6 8 - - - - - - - 14.7 - 0.0
24/06:30am SSW 8 13 - - - - - - - 13.9 - 0.0
24/06:00am SW 10 16 - - - - - - - 13.1 - 0.0
24/05:30am SW 11 19 - - - - - - - 13.4 - 0.0
24/05:00am WNW 7 12 - - - - - - - 11.1 - 0.0
24/04:30am W 1 5 - - - - - - - 10.7 - 0.0
24/04:00am WNW 5 10 - - - - - - - 11.0 - 0.0
24/03:30am WSW 7 11 - - - - - - - 10.9 - 0.0
24/03:00am NNW 4 7 - - - - - - - 11.4 - 0.0
24/02:30am NNW 5 7 - - - - - - - 11.6 - 0.0
24/02:00am NNW 4 7 - - - - - - - 11.9 - 0.0
24/01:30am WNW 4 6 - - - - - - - 11.5 - 0.0
24/01:00am NW 8 13 - - - - - - - 11.6 - 0.0
24/12:30am WNW 3 7 - - - - - - - 11.1 - 0.0
24/12:00am WNW 4 6 - - - - - - - 10.9 - 0.0
 
Date/Time
EST
Wind Sea
Height
m
Swell Vis
km
Cloud Weather Temp
°C
Press
hPa
Rain since
9am
mm
Dir  Spd
kts
Gust
kts
Height
m
Period
s
Dir
23/11:30pm WNW 4 7 - - - - - - - 11.2 - 0.0
23/11:00pm W 6 8 - - - - - - - 10.8 - 0.0
23/10:30pm WNW 4 7 - - - - - - - 10.8 - 0.0
23/10:00pm NW 5 6 - - - - - - - 10.8 - 0.0
23/09:30pm N 7 11 - - - - - - - 13.3 - 0.0
23/09:00pm NNW 5 7 - - - - - - - 12.0 - 0.0
23/08:30pm NNW 7 9 - - - - - - - 11.9 - 0.0
23/08:00pm NNW 7 9 - - - - - - - 13.1 - 0.0
23/07:30pm NNW 6 7 - - - - - - - 11.4 - 0.0
23/07:00pm N 7 11 - - - - - - - 13.4 - 0.0
23/06:30pm NNW 6 7 - - - - - - - 12.8 - 0.0
23/06:00pm N 5 6 - - - - - - - 13.6 - 0.0
23/05:30pm NW 5 7 - - - - - - - 13.4 - 0.0
23/05:00pm NNE 9 12 - - - - - - - 14.7 - 0.0
23/04:30pm NNE 8 11 - - - - - - - 15.1 - 0.0
23/04:00pm NE 8 11 - - - - - - - 15.0 - 0.0
23/03:30pm NE 9 11 - - - - - - - 15.3 - 0.0
23/03:00pm NE 7 11 - - - - - - - 15.7 - 0.0
23/02:30pm NE 7 10 - - - - - - - 16.1 - 0.0
23/02:00pm NE 8 11 - - - - - - - 15.7 - 0.0
23/01:30pm NE 7 9 - - - - - - - 15.3 - 0.0
23/01:00pm NE 7 9 - - - - - - - 15.1 - 0.0
23/12:30pm E 6 7 - - - - - - - 15.3 - 0.0
23/12:00pm ESE 6 7 - - - - - - - 14.7 - 0.0
23/11:30am ESE 5 7 - - - - - - - 14.3 - 0.0
23/11:00am S 4 6 - - - - - - - 13.6 - 0.0
23/10:30am SW 6 9 - - - - - - - 13.3 - 0.0
23/10:00am SW 7 10 - - - - - - - 12.9 - 0.0
23/09:30am W 7 10 - - - - - - - 12.6 - 0.0
23/09:00am WSW 9 11 - - - - - - - 11.9 - 0.0
23/08:30am W 8 12 - - - - - - - 11.1 - 0.0
23/08:00am W 8 10 - - - - - - - 10.8 - 0.0
23/07:30am W 7 10 - - - - - - - 10.4 - 0.0
23/07:00am WSW 7 11 - - - - - - - 10.4 - 0.0
23/06:30am WSW 9 12 - - - - - - - 10.5 - 0.0
23/06:00am WSW 9 13 - - - - - - - 10.3 - 0.0
23/05:30am WSW 10 15 - - - - - - - 10.1 - 0.0
23/05:00am WSW 8 13 - - - - - - - 9.2 - 0.0
23/04:30am WSW 9 13 - - - - - - - 8.7 - 0.0
23/04:00am WSW 9 13 - - - - - - - 8.5 - 0.0
23/03:30am SW 9 11 - - - - - - - 8.0 - 0.0
23/03:00am SW 9 11 - - - - - - - 8.3 - 0.0
23/02:30am SW 9 12 - - - - - - - 8.4 - 0.0
23/02:00am WSW 9 11 - - - - - - - 8.5 - 0.0
23/01:30am SW 9 11 - - - - - - - 8.6 - 0.0
23/01:00am SW 9 11 - - - - - - - 8.6 - 0.0
23/12:30am SW 9 11 - - - - - - - 9.1 - 0.0
23/12:00am SW 10 13 - - - - - - - 9.5 - 0.0
 
Date/Time
EST
Wind Sea
Height
m
Swell Vis
km
Cloud Weather Temp
°C
Press
hPa
Rain since
9am
mm
Dir  Spd
kts
Gust
kts
Height
m
Period
s
Dir
22/11:30pm WSW 10 13 - - - - - - - 10.0 - 0.0
22/11:00pm SW 11 18 - - - - - - - 10.9 - 0.0
22/10:30pm SW 11 14 - - - - - - - 10.6 - 0.0
22/10:00pm SW 10 14 - - - - - - - 10.9 - 0.0
22/09:30pm WSW 8 11 - - - - - - - 10.7 - 0.0
22/09:00pm SW 9 15 - - - - - - - 11.1 - 0.0
22/08:30pm SSW 14 18 - - - - - - - 12.2 - 0.0
22/08:00pm SW 12 17 - - - - - - - 11.8 - 0.0
22/07:30pm SW 9 13 - - - - - - - 11.7 - 0.0
22/07:00pm SW 13 22 - - - - - - - 12.3 - 0.0
22/06:30pm SSW 17 25 - - - - - - - 12.7 - 0.0
22/06:01pm SSW 23 33 - - - - - - - 13.3 - 0.0
22/06:00pm SSW 24 33 - - - - - - - 13.2 - 0.0
22/05:30pm SSW 26 36 - - - - - - - 13.4 - 0.0
22/05:00pm SSW 24 34 - - - - - - - 13.7 - 0.0
22/04:30pm S 29 35 - - - - - - - 13.8 - 0.0
22/04:00pm S 28 35 - - - - - - - 14.1 - 0.0
22/03:30pm S 29 38 - - - - - - - 14.0 - 0.0
22/03:00pm S 29 38 - - - - - - - 13.9 - 0.0
22/02:55pm S 28 38 - - - - - - - 13.9 - 0.0
22/02:30pm S 29 37 - - - - - - - 14.3 - 0.0
22/02:00pm S 30 37 - - - - - - - 13.9 - 0.0
22/01:30pm S 29 38 - - - - - - - 13.9 - 0.0

Other formats

Comma delimited format used in spreadsheet applications
http://www.bom.gov.au/fwo/IDN60701/IDN60701.94749.axf

JavaScript Object Notation format (JSON) in row-major order
http://www.bom.gov.au/fwo/IDN60701/IDN60701.94749.json

Data quality

Most of these data are generated automatically and are frequently updated. Quality checks on data are not normally performed. It is possible for incorrect values to appear. Refer to information at About Latest Weather Observations and please check the disclaimer before using these data.